sensor_id;sensor_type;location;lat;lon;timestamp;P1;durP1;ratioP1;P2;durP2;ratioP2
16900;SDS011;8567;52.540;6.434;2024-02-04T00:01:45;3.95;;;3.60;;
16900;SDS011;8567;52.540;6.434;2024-02-04T00:04:12;3.75;;;3.55;;
16900;SDS011;8567;52.540;6.434;2024-02-04T00:06:38;4.00;;;3.80;;
16900;SDS011;8567;52.540;6.434;2024-02-04T00:09:06;3.95;;;3.75;;
16900;SDS011;8567;52.540;6.434;2024-02-04T00:11:33;3.95;;;3.75;;
16900;SDS011;8567;52.540;6.434;2024-02-04T00:14:01;3.50;;;3.30;;
16900;SDS011;8567;52.540;6.434;2024-02-04T00:16:28;3.22;;;3.03;;
16900;SDS011;8567;52.540;6.434;2024-02-04T00:18:56;3.63;;;3.42;;
16900;SDS011;8567;52.540;6.434;2024-02-04T00:21:23;3.88;;;3.67;;
16900;SDS011;8567;52.540;6.434;2024-02-04T00:23:50;4.10;;;3.70;;
16900;SDS011;8567;52.540;6.434;2024-02-04T00:26:17;3.90;;;3.63;;
16900;SDS011;8567;52.540;6.434;2024-02-04T00:28:43;4.07;;;3.88;;
16900;SDS011;8567;52.540;6.434;2024-02-04T00:31:10;3.85;;;3.55;;
16900;SDS011;8567;52.540;6.434;2024-02-04T00:33:37;3.78;;;3.58;;
16900;SDS011;8567;52.540;6.434;2024-02-04T00:36:05;3.40;;;3.20;;
16900;SDS011;8567;52.540;6.434;2024-02-04T00:38:33;3.10;;;3.00;;
16900;SDS011;8567;52.540;6.434;2024-02-04T00:40:59;3.72;;;3.53;;
16900;SDS011;8567;52.540;6.434;2024-02-04T00:43:26;3.55;;;3.35;;
16900;SDS011;8567;52.540;6.434;2024-02-04T00:45:53;3.30;;;3.10;;
16900;SDS011;8567;52.540;6.434;2024-02-04T00:48:21;3.20;;;3.05;;
16900;SDS011;8567;52.540;6.434;2024-02-04T00:50:48;3.10;;;2.90;;
16900;SDS011;8567;52.540;6.434;2024-02-04T00:53:16;3.17;;;2.97;;
16900;SDS011;8567;52.540;6.434;2024-02-04T00:55:43;3.13;;;2.97;;
16900;SDS011;8567;52.540;6.434;2024-02-04T00:58:10;3.22;;;3.03;;
16900;SDS011;8567;52.540;6.434;2024-02-04T01:00:37;3.10;;;3.00;;
16900;SDS011;8567;52.540;6.434;2024-02-04T01:03:03;3.03;;;2.92;;
16900;SDS011;8567;52.540;6.434;2024-02-04T01:05:30;3.60;;;3.40;;
16900;SDS011;8567;52.540;6.434;2024-02-04T01:07:57;2.92;;;2.72;;
16900;SDS011;8567;52.540;6.434;2024-02-04T01:10:26;3.25;;;3.05;;
16900;SDS011;8567;52.540;6.434;2024-02-04T01:12:53;3.10;;;2.90;;
16900;SDS011;8567;52.540;6.434;2024-02-04T01:15:19;3.03;;;2.92;;
16900;SDS011;8567;52.540;6.434;2024-02-04T01:17:46;3.00;;;2.90;;
16900;SDS011;8567;52.540;6.434;2024-02-04T01:20:13;3.10;;;3.00;;
16900;SDS011;8567;52.540;6.434;2024-02-04T01:22:40;3.17;;;2.97;;
16900;SDS011;8567;52.540;6.434;2024-02-04T01:25:07;3.20;;;3.00;;
16900;SDS011;8567;52.540;6.434;2024-02-04T01:27:35;3.33;;;3.13;;
16900;SDS011;8567;52.540;6.434;2024-02-04T01:30:02;2.88;;;2.78;;
16900;SDS011;8567;52.540;6.434;2024-02-04T01:32:30;3.30;;;3.10;;
16900;SDS011;8567;52.540;6.434;2024-02-04T01:34:57;3.20;;;3.10;;
16900;SDS011;8567;52.540;6.434;2024-02-04T01:37:24;2.72;;;2.63;;
16900;SDS011;8567;52.540;6.434;2024-02-04T01:39:50;3.17;;;3.08;;
16900;SDS011;8567;52.540;6.434;2024-02-04T01:42:17;2.90;;;2.80;;
16900;SDS011;8567;52.540;6.434;2024-02-04T01:44:45;2.90;;;2.80;;
16900;SDS011;8567;52.540;6.434;2024-02-04T01:47:12;3.30;;;3.10;;
16900;SDS011;8567;52.540;6.434;2024-02-04T01:49:39;3.03;;;2.92;;
16900;SDS011;8567;52.540;6.434;2024-02-04T01:52:06;2.90;;;2.80;;
16900;SDS011;8567;52.540;6.434;2024-02-04T01:54:34;3.00;;;2.90;;
16900;SDS011;8567;52.540;6.434;2024-02-04T01:57:03;2.80;;;2.70;;
16900;SDS011;8567;52.540;6.434;2024-02-04T01:59:30;3.08;;;2.88;;
16900;SDS011;8567;52.540;6.434;2024-02-04T02:02:00;2.72;;;2.63;;
16900;SDS011;8567;52.540;6.434;2024-02-04T02:04:27;3.00;;;2.90;;
16900;SDS011;8567;52.540;6.434;2024-02-04T02:06:55;2.75;;;2.65;;
16900;SDS011;8567;52.540;6.434;2024-02-04T02:09:24;2.97;;;2.80;;
16900;SDS011;8567;52.540;6.434;2024-02-04T02:11:53;2.90;;;2.80;;
16900;SDS011;8567;52.540;6.434;2024-02-04T02:14:28;2.72;;;2.60;;
16900;SDS011;8567;52.540;6.434;2024-02-04T02:17:00;3.10;;;2.90;;
16900;SDS011;8567;52.540;6.434;2024-02-04T02:19:40;2.80;;;2.70;;
16900;SDS011;8567;52.540;6.434;2024-02-04T02:22:16;2.67;;;2.58;;
16900;SDS011;8567;52.540;6.434;2024-02-04T02:24:53;2.97;;;2.83;;
16900;SDS011;8567;52.540;6.434;2024-02-04T02:27:24;2.75;;;2.65;;
16900;SDS011;8567;52.540;6.434;2024-02-04T02:29:50;3.10;;;2.90;;
16900;SDS011;8567;52.540;6.434;2024-02-04T02:32:17;2.80;;;2.70;;
16900;SDS011;8567;52.540;6.434;2024-02-04T02:34:45;2.83;;;2.72;;
16900;SDS011;8567;52.540;6.434;2024-02-04T02:37:15;2.88;;;2.78;;
16900;SDS011;8567;52.540;6.434;2024-02-04T02:39:48;3.00;;;2.80;;
16900;SDS011;8567;52.540;6.434;2024-02-04T02:42:24;2.70;;;2.60;;
16900;SDS011;8567;52.540;6.434;2024-02-04T02:44:52;2.60;;;2.50;;
16900;SDS011;8567;52.540;6.434;2024-02-04T02:47:20;3.08;;;2.88;;
16900;SDS011;8567;52.540;6.434;2024-02-04T02:49:50;2.90;;;2.70;;
16900;SDS011;8567;52.540;6.434;2024-02-04T02:52:17;2.72;;;2.63;;
16900;SDS011;8567;52.540;6.434;2024-02-04T02:54:44;2.50;;;2.40;;
16900;SDS011;8567;52.540;6.434;2024-02-04T02:57:11;2.67;;;2.58;;
16900;SDS011;8567;52.540;6.434;2024-02-04T02:59:39;2.53;;;2.42;;
16900;SDS011;8567;52.540;6.434;2024-02-04T03:02:06;2.53;;;2.42;;
16900;SDS011;8567;52.540;6.434;2024-02-04T03:04:33;2.42;;;2.33;;
16900;SDS011;8567;52.540;6.434;2024-02-04T03:06:59;2.65;;;2.55;;
16900;SDS011;8567;52.540;6.434;2024-02-04T03:09:26;2.40;;;2.30;;
16900;SDS011;8567;52.540;6.434;2024-02-04T03:11:53;2.53;;;2.42;;
16900;SDS011;8567;52.540;6.434;2024-02-04T03:14:20;2.67;;;2.58;;
16900;SDS011;8567;52.540;6.434;2024-02-04T03:16:48;2.50;;;2.40;;
16900;SDS011;8567;52.540;6.434;2024-02-04T03:19:15;2.42;;;2.33;;
16900;SDS011;8567;52.540;6.434;2024-02-04T03:21:41;2.50;;;2.40;;
16900;SDS011;8567;52.540;6.434;2024-02-04T03:24:08;2.50;;;2.30;;
16900;SDS011;8567;52.540;6.434;2024-02-04T03:26:35;2.35;;;2.25;;
16900;SDS011;8567;52.540;6.434;2024-02-04T03:29:02;2.33;;;2.22;;
16900;SDS011;8567;52.540;6.434;2024-02-04T03:31:29;2.20;;;2.10;;
16900;SDS011;8567;52.540;6.434;2024-02-04T03:33:58;2.60;;;2.50;;
16900;SDS011;8567;52.540;6.434;2024-02-04T03:36:25;2.40;;;2.30;;
16900;SDS011;8567;52.540;6.434;2024-02-04T03:38:52;2.20;;;2.10;;
16900;SDS011;8567;52.540;6.434;2024-02-04T03:41:19;2.20;;;2.10;;
16900;SDS011;8567;52.540;6.434;2024-02-04T03:43:46;2.30;;;2.20;;
16900;SDS011;8567;52.540;6.434;2024-02-04T03:46:13;2.42;;;2.33;;
16900;SDS011;8567;52.540;6.434;2024-02-04T03:48:40;2.20;;;2.10;;
16900;SDS011;8567;52.540;6.434;2024-02-04T03:51:08;2.30;;;2.20;;
16900;SDS011;8567;52.540;6.434;2024-02-04T03:53:42;2.00;;;1.90;;
16900;SDS011;8567;52.540;6.434;2024-02-04T03:56:08;2.15;;;2.05;;
16900;SDS011;8567;52.540;6.434;2024-02-04T03:58:35;2.60;;;2.50;;
16900;SDS011;8567;52.540;6.434;2024-02-04T04:01:02;2.20;;;2.10;;
16900;SDS011;8567;52.540;6.434;2024-02-04T04:03:29;2.40;;;2.30;;
16900;SDS011;8567;52.540;6.434;2024-02-04T04:05:56;2.15;;;2.05;;
16900;SDS011;8567;52.540;6.434;2024-02-04T04:08:24;2.40;;;2.30;;
16900;SDS011;8567;52.540;6.434;2024-02-04T04:10:51;2.22;;;2.13;;
16900;SDS011;8567;52.540;6.434;2024-02-04T04:13:18;2.13;;;2.03;;
16900;SDS011;8567;52.540;6.434;2024-02-04T04:15:44;2.40;;;2.30;;
16900;SDS011;8567;52.540;6.434;2024-02-04T04:18:11;2.45;;;2.35;;
16900;SDS011;8567;52.540;6.434;2024-02-04T04:20:38;2.05;;;1.95;;
16900;SDS011;8567;52.540;6.434;2024-02-04T04:23:05;1.92;;;1.83;;
16900;SDS011;8567;52.540;6.434;2024-02-04T04:25:33;2.20;;;2.10;;
16900;SDS011;8567;52.540;6.434;2024-02-04T04:28:00;2.03;;;1.92;;
16900;SDS011;8567;52.540;6.434;2024-02-04T04:30:27;2.30;;;2.20;;
16900;SDS011;8567;52.540;6.434;2024-02-04T04:32:54;2.00;;;1.90;;
16900;SDS011;8567;52.540;6.434;2024-02-04T04:35:23;2.30;;;2.20;;
16900;SDS011;8567;52.540;6.434;2024-02-04T04:37:49;2.17;;;2.08;;
16900;SDS011;8567;52.540;6.434;2024-02-04T04:40:17;2.25;;;2.15;;
16900;SDS011;8567;52.540;6.434;2024-02-04T04:42:45;2.25;;;2.15;;
16900;SDS011;8567;52.540;6.434;2024-02-04T04:45:12;2.10;;;2.00;;
16900;SDS011;8567;52.540;6.434;2024-02-04T04:47:39;2.42;;;2.33;;
16900;SDS011;8567;52.540;6.434;2024-02-04T04:50:07;2.00;;;1.90;;
16900;SDS011;8567;52.540;6.434;2024-02-04T04:52:34;2.10;;;2.00;;
16900;SDS011;8567;52.540;6.434;2024-02-04T04:55:01;1.98;;;1.88;;
16900;SDS011;8567;52.540;6.434;2024-02-04T04:57:28;2.25;;;2.15;;
16900;SDS011;8567;52.540;6.434;2024-02-04T04:59:56;2.35;;;2.17;;
16900;SDS011;8567;52.540;6.434;2024-02-04T05:02:23;2.17;;;2.08;;
16900;SDS011;8567;52.540;6.434;2024-02-04T05:04:50;2.15;;;2.05;;
16900;SDS011;8567;52.540;6.434;2024-02-04T05:07:17;2.08;;;1.98;;
16900;SDS011;8567;52.540;6.434;2024-02-04T05:09:44;2.00;;;1.90;;
16900;SDS011;8567;52.540;6.434;2024-02-04T05:12:11;2.30;;;2.20;;
16900;SDS011;8567;52.540;6.434;2024-02-04T05:14:38;2.00;;;1.90;;
16900;SDS011;8567;52.540;6.434;2024-02-04T05:17:06;2.00;;;1.90;;
16900;SDS011;8567;52.540;6.434;2024-02-04T05:19:34;2.05;;;1.95;;
16900;SDS011;8567;52.540;6.434;2024-02-04T05:22:01;2.13;;;2.03;;
16900;SDS011;8567;52.540;6.434;2024-02-04T05:24:28;1.75;;;1.65;;
16900;SDS011;8567;52.540;6.434;2024-02-04T05:26:55;1.83;;;1.73;;
16900;SDS011;8567;52.540;6.434;2024-02-04T05:29:22;1.80;;;1.70;;
16900;SDS011;8567;52.540;6.434;2024-02-04T05:31:48;1.90;;;1.80;;
16900;SDS011;8567;52.540;6.434;2024-02-04T05:34:17;1.92;;;1.83;;
16900;SDS011;8567;52.540;6.434;2024-02-04T05:36:44;2.00;;;1.90;;
16900;SDS011;8567;52.540;6.434;2024-02-04T05:39:11;1.98;;;1.88;;
16900;SDS011;8567;52.540;6.434;2024-02-04T05:41:38;2.10;;;2.00;;
16900;SDS011;8567;52.540;6.434;2024-02-04T05:44:06;1.98;;;1.88;;
16900;SDS011;8567;52.540;6.434;2024-02-04T05:46:34;1.90;;;1.80;;
16900;SDS011;8567;52.540;6.434;2024-02-04T05:49:00;1.90;;;1.80;;
16900;SDS011;8567;52.540;6.434;2024-02-04T05:51:30;1.92;;;1.83;;
16900;SDS011;8567;52.540;6.434;2024-02-04T05:53:58;1.92;;;1.83;;
16900;SDS011;8567;52.540;6.434;2024-02-04T05:56:25;1.85;;;1.75;;
16900;SDS011;8567;52.540;6.434;2024-02-04T05:58:51;2.08;;;1.98;;
16900;SDS011;8567;52.540;6.434;2024-02-04T06:01:18;2.08;;;1.98;;
16900;SDS011;8567;52.540;6.434;2024-02-04T06:03:45;2.00;;;1.90;;
16900;SDS011;8567;52.540;6.434;2024-02-04T06:06:14;1.90;;;1.80;;
16900;SDS011;8567;52.540;6.434;2024-02-04T06:08:43;1.83;;;1.73;;
16900;SDS011;8567;52.540;6.434;2024-02-04T06:11:10;1.70;;;1.67;;
16900;SDS011;8567;52.540;6.434;2024-02-04T06:13:38;1.92;;;1.83;;
16900;SDS011;8567;52.540;6.434;2024-02-04T06:16:05;1.60;;;1.60;;
16900;SDS011;8567;52.540;6.434;2024-02-04T06:18:32;2.00;;;1.90;;
16900;SDS011;8567;52.540;6.434;2024-02-04T06:21:00;1.75;;;1.73;;
16900;SDS011;8567;52.540;6.434;2024-02-04T06:23:27;2.10;;;2.00;;
16900;SDS011;8567;52.540;6.434;2024-02-04T06:25:55;1.85;;;1.75;;
16900;SDS011;8567;52.540;6.434;2024-02-04T06:28:22;2.10;;;2.00;;
16900;SDS011;8567;52.540;6.434;2024-02-04T06:30:48;1.83;;;1.73;;
16900;SDS011;8567;52.540;6.434;2024-02-04T06:33:15;1.88;;;1.77;;
16900;SDS011;8567;52.540;6.434;2024-02-04T06:35:42;1.80;;;1.70;;
16900;SDS011;8567;52.540;6.434;2024-02-04T06:38:09;1.80;;;1.70;;
16900;SDS011;8567;52.540;6.434;2024-02-04T06:40:36;1.85;;;1.75;;
16900;SDS011;8567;52.540;6.434;2024-02-04T06:43:04;2.03;;;1.92;;
16900;SDS011;8567;52.540;6.434;2024-02-04T06:45:31;2.10;;;2.00;;
16900;SDS011;8567;52.540;6.434;2024-02-04T06:47:57;2.10;;;2.00;;
16900;SDS011;8567;52.540;6.434;2024-02-04T06:50:24;2.28;;;2.08;;
16900;SDS011;8567;52.540;6.434;2024-02-04T06:52:51;2.03;;;1.92;;
16900;SDS011;8567;52.540;6.434;2024-02-04T06:55:18;1.70;;;1.70;;
16900;SDS011;8567;52.540;6.434;2024-02-04T06:57:45;2.00;;;1.90;;
16900;SDS011;8567;52.540;6.434;2024-02-04T07:00:13;2.22;;;2.03;;
16900;SDS011;8567;52.540;6.434;2024-02-04T07:02:41;1.75;;;1.73;;
16900;SDS011;8567;52.540;6.434;2024-02-04T07:05:08;2.00;;;1.90;;
16900;SDS011;8567;52.540;6.434;2024-02-04T07:07:35;1.80;;;1.70;;
16900;SDS011;8567;52.540;6.434;2024-02-04T07:10:02;2.05;;;1.95;;
16900;SDS011;8567;52.540;6.434;2024-02-04T07:12:29;1.90;;;1.80;;
16900;SDS011;8567;52.540;6.434;2024-02-04T07:14:56;1.98;;;1.88;;
16900;SDS011;8567;52.540;6.434;2024-02-04T07:17:25;2.15;;;2.03;;
16900;SDS011;8567;52.540;6.434;2024-02-04T07:19:51;1.83;;;1.73;;
16900;SDS011;8567;52.540;6.434;2024-02-04T07:22:18;1.90;;;1.80;;
16900;SDS011;8567;52.540;6.434;2024-02-04T07:24:45;2.13;;;2.03;;
16900;SDS011;8567;52.540;6.434;2024-02-04T07:27:12;1.98;;;1.88;;
16900;SDS011;8567;52.540;6.434;2024-02-04T07:29:39;1.83;;;1.73;;
16900;SDS011;8567;52.540;6.434;2024-02-04T07:32:06;1.88;;;1.77;;
16900;SDS011;8567;52.540;6.434;2024-02-04T07:34:34;2.28;;;2.17;;
16900;SDS011;8567;52.540;6.434;2024-02-04T07:37:01;1.88;;;1.77;;
16900;SDS011;8567;52.540;6.434;2024-02-04T07:39:29;2.08;;;1.98;;
16900;SDS011;8567;52.540;6.434;2024-02-04T07:41:56;1.95;;;1.85;;
16900;SDS011;8567;52.540;6.434;2024-02-04T07:44:25;1.80;;;1.70;;
16900;SDS011;8567;52.540;6.434;2024-02-04T07:46:52;1.92;;;1.83;;
16900;SDS011;8567;52.540;6.434;2024-02-04T07:49:19;2.35;;;2.25;;
16900;SDS011;8567;52.540;6.434;2024-02-04T07:51:47;2.10;;;2.00;;
16900;SDS011;8567;52.540;6.434;2024-02-04T07:54:13;2.13;;;2.03;;
16900;SDS011;8567;52.540;6.434;2024-02-04T07:56:40;3.70;;;2.10;;
16900;SDS011;8567;52.540;6.434;2024-02-04T07:59:07;1.90;;;1.75;;
16900;SDS011;8567;52.540;6.434;2024-02-04T08:01:34;1.70;;;1.60;;
16900;SDS011;8567;52.540;6.434;2024-02-04T08:04:01;1.85;;;1.75;;
16900;SDS011;8567;52.540;6.434;2024-02-04T08:06:28;1.80;;;1.70;;
16900;SDS011;8567;52.540;6.434;2024-02-04T08:08:56;1.98;;;1.88;;
16900;SDS011;8567;52.540;6.434;2024-02-04T08:11:23;1.70;;;1.60;;
16900;SDS011;8567;52.540;6.434;2024-02-04T08:13:50;1.95;;;1.85;;
16900;SDS011;8567;52.540;6.434;2024-02-04T08:16:17;2.10;;;2.00;;
16900;SDS011;8567;52.540;6.434;2024-02-04T08:18:43;1.80;;;1.70;;
16900;SDS011;8567;52.540;6.434;2024-02-04T08:21:10;1.70;;;1.60;;
16900;SDS011;8567;52.540;6.434;2024-02-04T08:23:37;1.85;;;1.75;;
16900;SDS011;8567;52.540;6.434;2024-02-04T08:26:07;2.00;;;1.90;;
16900;SDS011;8567;52.540;6.434;2024-02-04T08:28:34;1.92;;;1.83;;
16900;SDS011;8567;52.540;6.434;2024-02-04T08:31:00;2.10;;;1.90;;
16900;SDS011;8567;52.540;6.434;2024-02-04T08:33:27;1.73;;;1.63;;
16900;SDS011;8567;52.540;6.434;2024-02-04T08:35:54;2.00;;;1.90;;
16900;SDS011;8567;52.540;6.434;2024-02-04T08:38:21;1.85;;;1.75;;
16900;SDS011;8567;52.540;6.434;2024-02-04T08:40:48;1.90;;;1.80;;
16900;SDS011;8567;52.540;6.434;2024-02-04T08:43:16;1.77;;;1.67;;
16900;SDS011;8567;52.540;6.434;2024-02-04T08:45:42;2.10;;;2.00;;
16900;SDS011;8567;52.540;6.434;2024-02-04T08:48:09;3.42;;;2.05;;
16900;SDS011;8567;52.540;6.434;2024-02-04T08:50:36;1.80;;;1.70;;
16900;SDS011;8567;52.540;6.434;2024-02-04T08:53:03;1.80;;;1.70;;
16900;SDS011;8567;52.540;6.434;2024-02-04T08:55:30;1.83;;;1.73;;
16900;SDS011;8567;52.540;6.434;2024-02-04T08:57:57;1.70;;;1.60;;
16900;SDS011;8567;52.540;6.434;2024-02-04T09:00:25;2.13;;;2.03;;
16900;SDS011;8567;52.540;6.434;2024-02-04T09:02:52;1.80;;;1.70;;
16900;SDS011;8567;52.540;6.434;2024-02-04T09:05:18;1.80;;;1.70;;
16900;SDS011;8567;52.540;6.434;2024-02-04T09:07:45;1.98;;;1.88;;
16900;SDS011;8567;52.540;6.434;2024-02-04T09:10:12;1.90;;;1.80;;
16900;SDS011;8567;52.540;6.434;2024-02-04T09:12:39;1.88;;;1.77;;
16900;SDS011;8567;52.540;6.434;2024-02-04T09:15:06;1.98;;;1.88;;
16900;SDS011;8567;52.540;6.434;2024-02-04T09:17:35;2.17;;;1.98;;
16900;SDS011;8567;52.540;6.434;2024-02-04T09:20:02;2.25;;;2.13;;
16900;SDS011;8567;52.540;6.434;2024-02-04T09:22:30;2.53;;;2.33;;
16900;SDS011;8567;52.540;6.434;2024-02-04T09:24:56;2.70;;;2.50;;
16900;SDS011;8567;52.540;6.434;2024-02-04T09:27:23;4.57;;;3.08;;
16900;SDS011;8567;52.540;6.434;2024-02-04T09:29:50;12.63;;;6.18;;
16900;SDS011;8567;52.540;6.434;2024-02-04T09:32:17;12.02;;;6.55;;
16900;SDS011;8567;52.540;6.434;2024-02-04T09:34:45;16.00;;;6.85;;
16900;SDS011;8567;52.540;6.434;2024-02-04T09:37:12;10.05;;;6.47;;
16900;SDS011;8567;52.540;6.434;2024-02-04T09:39:39;12.93;;;6.32;;
16900;SDS011;8567;52.540;6.434;2024-02-04T09:42:05;14.35;;;5.32;;
16900;SDS011;8567;52.540;6.434;2024-02-04T09:44:32;11.48;;;5.35;;
16900;SDS011;8567;52.540;6.434;2024-02-04T09:47:01;10.40;;;4.80;;
16900;SDS011;8567;52.540;6.434;2024-02-04T09:49:27;7.20;;;4.32;;
16900;SDS011;8567;52.540;6.434;2024-02-04T09:51:56;5.28;;;3.72;;
16900;SDS011;8567;52.540;6.434;2024-02-04T09:54:26;5.85;;;4.30;;
16900;SDS011;8567;52.540;6.434;2024-02-04T09:56:55;5.10;;;4.00;;
16900;SDS011;8567;52.540;6.434;2024-02-04T09:59:23;6.25;;;3.50;;
16900;SDS011;8567;52.540;6.434;2024-02-04T10:01:50;4.00;;;3.20;;
16900;SDS011;8567;52.540;6.434;2024-02-04T10:04:18;4.80;;;3.35;;
16900;SDS011;8567;52.540;6.434;2024-02-04T10:06:44;4.57;;;3.35;;
16900;SDS011;8567;52.540;6.434;2024-02-04T10:09:13;4.18;;;3.72;;
16900;SDS011;8567;52.540;6.434;2024-02-04T10:11:39;10.48;;;8.93;;
16900;SDS011;8567;52.540;6.434;2024-02-04T10:14:06;23.92;;;19.83;;
16900;SDS011;8567;52.540;6.434;2024-02-04T10:16:35;25.55;;;18.90;;
16900;SDS011;8567;52.540;6.434;2024-02-04T10:19:01;32.85;;;24.50;;
16900;SDS011;8567;52.540;6.434;2024-02-04T10:21:28;27.42;;;19.77;;
16900;SDS011;8567;52.540;6.434;2024-02-04T10:23:55;25.17;;;18.45;;
16900;SDS011;8567;52.540;6.434;2024-02-04T10:26:25;32.10;;;18.23;;
16900;SDS011;8567;52.540;6.434;2024-02-04T10:28:57;22.48;;;16.05;;
16900;SDS011;8567;52.540;6.434;2024-02-04T10:31:24;23.23;;;15.38;;
16900;SDS011;8567;52.540;6.434;2024-02-04T10:33:52;16.40;;;13.05;;
16900;SDS011;8567;52.540;6.434;2024-02-04T10:36:19;13.95;;;11.80;;
16900;SDS011;8567;52.540;6.434;2024-02-04T10:38:45;16.65;;;11.95;;
16900;SDS011;8567;52.540;6.434;2024-02-04T10:41:14;15.63;;;10.68;;
16900;SDS011;8567;52.540;6.434;2024-02-04T10:43:43;12.55;;;10.00;;
16900;SDS011;8567;52.540;6.434;2024-02-04T10:46:12;10.63;;;8.23;;
16900;SDS011;8567;52.540;6.434;2024-02-04T10:48:43;10.90;;;7.63;;
16900;SDS011;8567;52.540;6.434;2024-02-04T10:51:16;9.32;;;6.78;;
16900;SDS011;8567;52.540;6.434;2024-02-04T10:53:44;12.18;;;7.15;;
16900;SDS011;8567;52.540;6.434;2024-02-04T10:56:13;7.43;;;6.00;;
16900;SDS011;8567;52.540;6.434;2024-02-04T10:58:44;6.28;;;5.45;;
16900;SDS011;8567;52.540;6.434;2024-02-04T11:01:12;7.65;;;5.90;;
16900;SDS011;8567;52.540;6.434;2024-02-04T11:03:40;7.20;;;5.32;;
16900;SDS011;8567;52.540;6.434;2024-02-04T11:06:08;5.38;;;4.88;;
16900;SDS011;8567;52.540;6.434;2024-02-04T11:08:37;6.45;;;4.90;;
16900;SDS011;8567;52.540;6.434;2024-02-04T11:11:04;6.43;;;4.78;;
16900;SDS011;8567;52.540;6.434;2024-02-04T11:13:31;5.85;;;4.30;;
16900;SDS011;8567;52.540;6.434;2024-02-04T11:16:01;5.00;;;4.13;;
16900;SDS011;8567;52.540;6.434;2024-02-04T11:18:42;4.47;;;4.07;;
16900;SDS011;8567;52.540;6.434;2024-02-04T11:21:29;4.50;;;4.07;;
16900;SDS011;8567;52.540;6.434;2024-02-04T11:24:14;4.07;;;3.72;;
16900;SDS011;8567;52.540;6.434;2024-02-04T11:26:52;4.90;;;4.03;;
16900;SDS011;8567;52.540;6.434;2024-02-04T11:29:19;3.85;;;3.50;;
16900;SDS011;8567;52.540;6.434;2024-02-04T11:31:48;3.70;;;3.40;;
16900;SDS011;8567;52.540;6.434;2024-02-04T11:34:15;4.03;;;3.63;;
16900;SDS011;8567;52.540;6.434;2024-02-04T11:36:42;5.25;;;3.50;;
16900;SDS011;8567;52.540;6.434;2024-02-04T11:39:12;3.35;;;3.08;;
16900;SDS011;8567;52.540;6.434;2024-02-04T11:41:49;3.22;;;3.03;;
16900;SDS011;8567;52.540;6.434;2024-02-04T11:44:20;3.25;;;3.00;;
16900;SDS011;8567;52.540;6.434;2024-02-04T11:46:48;3.05;;;2.75;;
16900;SDS011;8567;52.540;6.434;2024-02-04T11:49:15;3.00;;;2.70;;
16900;SDS011;8567;52.540;6.434;2024-02-04T11:51:46;3.33;;;3.03;;
16900;SDS011;8567;52.540;6.434;2024-02-04T11:54:14;2.92;;;2.72;;
16900;SDS011;8567;52.540;6.434;2024-02-04T11:56:43;3.78;;;2.63;;
16900;SDS011;8567;52.540;6.434;2024-02-04T11:59:10;3.13;;;2.92;;
16900;SDS011;8567;52.540;6.434;2024-02-04T12:01:39;2.70;;;2.50;;
16900;SDS011;8567;52.540;6.434;2024-02-04T12:04:10;2.65;;;2.45;;
16900;SDS011;8567;52.540;6.434;2024-02-04T12:06:38;2.50;;;2.40;;
16900;SDS011;8567;52.540;6.434;2024-02-04T12:09:07;2.75;;;2.55;;
16900;SDS011;8567;52.540;6.434;2024-02-04T12:11:35;2.40;;;2.30;;
16900;SDS011;8567;52.540;6.434;2024-02-04T12:14:04;2.28;;;2.15;;
16900;SDS011;8567;52.540;6.434;2024-02-04T12:16:33;3.25;;;2.55;;
16900;SDS011;8567;52.540;6.434;2024-02-04T12:19:01;2.50;;;2.30;;
16900;SDS011;8567;52.540;6.434;2024-02-04T12:21:30;2.00;;;1.90;;
16900;SDS011;8567;52.540;6.434;2024-02-04T12:23:57;2.47;;;2.38;;
16900;SDS011;8567;52.540;6.434;2024-02-04T12:26:24;2.90;;;2.70;;
16900;SDS011;8567;52.540;6.434;2024-02-04T12:28:51;2.95;;;2.75;;
16900;SDS011;8567;52.540;6.434;2024-02-04T12:31:19;2.42;;;2.33;;
16900;SDS011;8567;52.540;6.434;2024-02-04T12:33:54;2.90;;;2.60;;
16900;SDS011;8567;52.540;6.434;2024-02-04T12:36:23;2.63;;;2.42;;
16900;SDS011;8567;52.540;6.434;2024-02-04T12:38:53;2.60;;;2.40;;
16900;SDS011;8567;52.540;6.434;2024-02-04T12:41:20;2.60;;;2.40;;
16900;SDS011;8567;52.540;6.434;2024-02-04T12:43:50;2.70;;;2.47;;
16900;SDS011;8567;52.540;6.434;2024-02-04T12:46:18;2.20;;;2.10;;
16900;SDS011;8567;52.540;6.434;2024-02-04T12:48:45;2.67;;;2.47;;
16900;SDS011;8567;52.540;6.434;2024-02-04T12:51:22;2.50;;;2.22;;
16900;SDS011;8567;52.540;6.434;2024-02-04T12:53:50;2.45;;;2.25;;
16900;SDS011;8567;52.540;6.434;2024-02-04T12:56:18;2.78;;;2.58;;
16900;SDS011;8567;52.540;6.434;2024-02-04T12:58:44;2.83;;;2.63;;
16900;SDS011;8567;52.540;6.434;2024-02-04T13:01:11;2.35;;;2.25;;
16900;SDS011;8567;52.540;6.434;2024-02-04T13:03:39;2.20;;;2.10;;
16900;SDS011;8567;52.540;6.434;2024-02-04T13:06:06;2.17;;;2.08;;
16900;SDS011;8567;52.540;6.434;2024-02-04T13:08:33;2.08;;;1.98;;
16900;SDS011;8567;52.540;6.434;2024-02-04T13:11:00;2.13;;;2.03;;
16900;SDS011;8567;52.540;6.434;2024-02-04T13:13:28;2.50;;;2.30;;
16900;SDS011;8567;52.540;6.434;2024-02-04T13:15:55;2.15;;;2.05;;
16900;SDS011;8567;52.540;6.434;2024-02-04T13:18:22;2.25;;;2.10;;
16900;SDS011;8567;52.540;6.434;2024-02-04T13:20:49;2.05;;;1.95;;
16900;SDS011;8567;52.540;6.434;2024-02-04T13:23:15;2.00;;;1.90;;
16900;SDS011;8567;52.540;6.434;2024-02-04T13:25:42;2.15;;;2.05;;
16900;SDS011;8567;52.540;6.434;2024-02-04T13:28:10;2.33;;;2.13;;
16900;SDS011;8567;52.540;6.434;2024-02-04T13:30:40;2.35;;;2.25;;
16900;SDS011;8567;52.540;6.434;2024-02-04T13:33:06;2.17;;;2.08;;
16900;SDS011;8567;52.540;6.434;2024-02-04T13:35:33;2.10;;;2.00;;
16900;SDS011;8567;52.540;6.434;2024-02-04T13:38:01;1.90;;;1.80;;
16900;SDS011;8567;52.540;6.434;2024-02-04T13:40:28;2.30;;;2.20;;
16900;SDS011;8567;52.540;6.434;2024-02-04T13:42:55;2.17;;;2.08;;
16900;SDS011;8567;52.540;6.434;2024-02-04T13:45:22;2.17;;;2.08;;
16900;SDS011;8567;52.540;6.434;2024-02-04T13:47:50;1.83;;;1.73;;
16900;SDS011;8567;52.540;6.434;2024-02-04T13:50:17;2.15;;;1.95;;
16900;SDS011;8567;52.540;6.434;2024-02-04T13:52:44;1.77;;;1.77;;
16900;SDS011;8567;52.540;6.434;2024-02-04T13:55:11;1.90;;;1.80;;
16900;SDS011;8567;52.540;6.434;2024-02-04T13:57:38;2.15;;;2.05;;
16900;SDS011;8567;52.540;6.434;2024-02-04T14:00:05;2.25;;;2.15;;
16900;SDS011;8567;52.540;6.434;2024-02-04T14:02:32;2.00;;;1.90;;
16900;SDS011;8567;52.540;6.434;2024-02-04T14:05:01;2.25;;;2.15;;
16900;SDS011;8567;52.540;6.434;2024-02-04T14:07:28;2.33;;;2.13;;
16900;SDS011;8567;52.540;6.434;2024-02-04T14:09:55;2.35;;;2.17;;
16900;SDS011;8567;52.540;6.434;2024-02-04T14:12:21;2.03;;;1.92;;
16900;SDS011;8567;52.540;6.434;2024-02-04T14:14:48;2.28;;;2.17;;
16900;SDS011;8567;52.540;6.434;2024-02-04T14:17:15;2.13;;;2.03;;
16900;SDS011;8567;52.540;6.434;2024-02-04T14:19:42;2.13;;;2.03;;
16900;SDS011;8567;52.540;6.434;2024-02-04T14:22:12;2.10;;;2.00;;
16900;SDS011;8567;52.540;6.434;2024-02-04T14:24:39;2.05;;;1.95;;
16900;SDS011;8567;52.540;6.434;2024-02-04T14:27:06;2.03;;;1.92;;
16900;SDS011;8567;52.540;6.434;2024-02-04T14:29:33;2.00;;;1.90;;
16900;SDS011;8567;52.540;6.434;2024-02-04T14:32:01;1.98;;;1.88;;
16900;SDS011;8567;52.540;6.434;2024-02-04T14:34:28;1.80;;;1.75;;
16900;SDS011;8567;52.540;6.434;2024-02-04T14:36:54;2.15;;;2.05;;
16900;SDS011;8567;52.540;6.434;2024-02-04T14:39:22;2.00;;;1.90;;
16900;SDS011;8567;52.540;6.434;2024-02-04T14:41:49;1.98;;;1.88;;
16900;SDS011;8567;52.540;6.434;2024-02-04T14:44:19;2.10;;;2.00;;
16900;SDS011;8567;52.540;6.434;2024-02-04T14:46:45;1.73;;;1.73;;
16900;SDS011;8567;52.540;6.434;2024-02-04T14:49:13;1.75;;;1.65;;
16900;SDS011;8567;52.540;6.434;2024-02-04T14:51:40;1.65;;;1.65;;
16900;SDS011;8567;52.540;6.434;2024-02-04T14:54:08;1.88;;;1.77;;
16900;SDS011;8567;52.540;6.434;2024-02-04T14:56:39;1.90;;;1.80;;
16900;SDS011;8567;52.540;6.434;2024-02-04T14:59:07;1.77;;;1.67;;
16900;SDS011;8567;52.540;6.434;2024-02-04T15:01:35;1.95;;;1.85;;
16900;SDS011;8567;52.540;6.434;2024-02-04T15:04:02;1.90;;;1.80;;